createdAt,value
2018-06-04T00:00:24.322Z,12.78
2018-06-04T00:02:52.314Z,12.73
2018-06-04T00:05:20.372Z,12.66
2018-06-04T00:07:48.368Z,12.72
2018-06-04T00:10:16.376Z,12.71
2018-06-04T00:12:44.332Z,12.64
2018-06-04T00:15:12.310Z,12.59
2018-06-04T00:17:40.309Z,12.56
2018-06-04T00:20:08.390Z,12.52
2018-06-04T00:22:36.373Z,12.44
2018-06-04T00:25:04.419Z,12.42
2018-06-04T00:27:32.456Z,12.41
2018-06-04T00:30:00.456Z,12.39
2018-06-04T00:32:28.600Z,12.35
2018-06-04T00:34:56.619Z,12.34
2018-06-04T00:37:24.659Z,12.36
2018-06-04T00:39:52.762Z,12.36
2018-06-04T00:42:20.795Z,12.35
2018-06-04T00:44:48.867Z,12.32
2018-06-04T00:47:16.976Z,12.30
2018-06-04T00:49:45.068Z,12.29
2018-06-04T00:52:13.028Z,12.32
2018-06-04T00:54:41.024Z,12.24
2018-06-04T00:57:08.997Z,12.20
2018-06-04T00:59:37.102Z,12.37
2018-06-04T01:02:05.352Z,12.32
2018-06-04T01:04:33.330Z,12.24
2018-06-04T01:07:01.401Z,12.24
2018-06-04T01:09:29.393Z,12.26
2018-06-04T01:11:57.380Z,12.27
2018-06-04T01:14:25.321Z,12.29
2018-06-04T01:16:53.334Z,12.27
2018-06-04T01:19:21.439Z,12.24
2018-06-04T01:21:49.487Z,12.19
2018-06-04T01:24:17.540Z,12.08
2018-06-04T01:26:45.611Z,12.11
2018-06-04T01:29:13.716Z,12.08
2018-06-04T01:31:41.760Z,12.07
2018-06-04T01:34:09.796Z,12.06
2018-06-04T01:36:37.856Z,12.00
2018-06-04T01:39:07.343Z,11.97
2018-06-04T01:41:35.408Z,11.91
2018-06-04T01:44:03.705Z,11.76
2018-06-04T01:46:31.649Z,11.84
2018-06-04T01:48:59.677Z,11.82
2018-06-04T01:51:27.712Z,11.80
2018-06-04T01:53:55.737Z,11.79
2018-06-04T01:56:23.786Z,11.68
2018-06-04T01:58:51.768Z,11.50
2018-06-04T02:01:19.824Z,11.48
2018-06-04T02:03:47.841Z,11.44
2018-06-04T02:06:15.901Z,11.42
2018-06-04T02:08:44.060Z,11.42
2018-06-04T02:11:12.109Z,11.41
2018-06-04T02:13:40.097Z,11.39
2018-06-04T02:16:08.193Z,11.38
2018-06-04T02:18:36.187Z,11.37
2018-06-04T02:21:04.228Z,11.35
2018-06-04T02:23:32.345Z,11.28
2018-06-04T02:26:00.449Z,11.30
2018-06-04T02:28:28.493Z,11.44
2018-06-04T02:30:56.502Z,11.42
2018-06-04T02:33:24.463Z,11.46
2018-06-04T02:35:52.545Z,11.51
2018-06-04T02:38:20.541Z,11.45
2018-06-04T02:40:48.616Z,11.41
2018-06-04T02:43:16.623Z,11.39
2018-06-04T02:45:44.573Z,11.36
2018-06-04T02:48:12.545Z,11.38
2018-06-04T02:50:40.532Z,11.40
2018-06-04T02:53:08.649Z,11.47
2018-06-04T02:55:36.736Z,11.50
2018-06-04T02:58:04.780Z,11.55
2018-06-04T03:00:32.791Z,11.56
2018-06-04T03:03:00.763Z,11.47
2018-06-04T03:05:28.768Z,11.48
2018-06-04T03:07:56.784Z,11.55
2018-06-04T03:10:24.892Z,11.59
2018-06-04T03:12:52.989Z,11.70
2018-06-04T03:15:20.990Z,11.79
2018-06-04T03:17:49.079Z,11.77
2018-06-04T03:20:17.208Z,11.85
2018-06-04T03:22:45.287Z,11.89
2018-06-04T03:25:13.263Z,11.98
2018-06-04T03:27:41.256Z,12.07
2018-06-04T03:30:09.300Z,12.21
2018-06-04T03:32:37.630Z,12.09
2018-06-04T03:35:05.877Z,12.00
2018-06-04T03:37:33.859Z,11.96
2018-06-04T03:40:01.979Z,12.07
2018-06-04T03:42:29.956Z,12.17
2018-06-04T03:45:04.874Z,12.32
2018-06-04T03:47:32.990Z,12.50
2018-06-04T03:50:01.044Z,12.59
2018-06-04T03:52:28.995Z,12.50
2018-06-04T03:54:56.977Z,12.45
2018-06-04T03:57:25.077Z,12.43
2018-06-04T03:59:53.135Z,12.50
2018-06-04T04:02:21.288Z,12.48
2018-06-04T04:04:49.252Z,12.66
2018-06-04T04:07:17.417Z,12.77
2018-06-04T04:09:45.654Z,12.84
2018-06-04T04:12:13.754Z,12.93
2018-06-04T04:14:41.849Z,12.85
2018-06-04T04:17:09.870Z,12.83
2018-06-04T04:19:37.899Z,13.05
2018-06-04T04:22:05.999Z,13.24
2018-06-04T04:24:34.003Z,13.54
2018-06-04T04:27:02.000Z,13.72
2018-06-04T04:29:30.075Z,13.84
2018-06-04T04:31:58.202Z,14.44
2018-06-04T04:34:26.260Z,14.78
2018-06-04T04:36:54.259Z,14.95
2018-06-04T04:39:22.288Z,14.86
2018-06-04T04:41:50.335Z,14.64
2018-06-04T04:44:18.449Z,14.93
2018-06-04T04:46:46.475Z,15.70
2018-06-04T04:49:14.478Z,16.12
2018-06-04T04:51:42.508Z,15.79
2018-06-04T04:54:10.740Z,15.35
2018-06-04T04:56:38.854Z,15.29
2018-06-04T04:59:06.883Z,14.87
2018-06-04T05:01:34.893Z,14.52
2018-06-04T05:04:02.890Z,14.40
2018-06-04T05:06:30.922Z,14.16
2018-06-04T05:08:58.986Z,14.23
2018-06-04T05:11:27.107Z,14.38
2018-06-04T05:13:55.299Z,14.42
2018-06-04T05:16:23.437Z,14.66
2018-06-04T05:18:51.597Z,14.99
2018-06-04T05:21:19.757Z,15.33
2018-06-04T05:23:48.004Z,15.79
2018-06-04T05:26:16.404Z,15.46
2018-06-04T05:28:44.596Z,14.92
2018-06-04T05:31:12.758Z,14.67
2018-06-04T05:33:41.553Z,15.00
2018-06-04T05:36:09.914Z,15.13
2018-06-04T05:38:38.141Z,15.32
2018-06-04T05:41:06.304Z,15.13
2018-06-04T05:43:34.400Z,15.39
2018-06-04T05:46:02.820Z,15.94
2018-06-04T05:48:31.029Z,16.09
2018-06-04T05:50:59.149Z,16.04
2018-06-04T05:53:27.361Z,16.53
2018-06-04T05:55:55.620Z,16.42
2018-06-04T05:58:23.790Z,16.11
2018-06-04T06:00:51.846Z,15.77
2018-06-04T06:03:20.345Z,15.92
2018-06-04T06:05:48.619Z,15.95
2018-06-04T06:08:16.815Z,16.30
2018-06-04T06:10:44.880Z,16.56
2018-06-04T06:13:12.925Z,16.78
2018-06-04T06:15:40.943Z,17.31
2018-06-04T06:18:09.173Z,18.21
2018-06-04T06:20:37.197Z,18.90
2018-06-04T06:23:05.513Z,19.16
2018-06-04T06:25:33.652Z,19.59
2018-06-04T06:28:01.881Z,19.22
2018-06-04T06:30:29.891Z,19.22
2018-06-04T06:32:57.931Z,19.75
2018-06-04T06:35:25.960Z,19.72
2018-06-04T06:37:53.957Z,19.93
2018-06-04T06:40:22.234Z,19.94
2018-06-04T06:42:50.514Z,20.44
2018-06-04T06:45:18.594Z,20.52
2018-06-04T06:47:46.650Z,20.97
2018-06-04T06:50:14.790Z,21.39
2018-06-04T06:52:42.986Z,21.94
2018-06-04T06:55:10.957Z,22.37
2018-06-04T06:57:38.972Z,22.21
2018-06-04T07:00:07.424Z,21.91
2018-06-04T07:02:36.232Z,21.73
2018-06-04T07:05:04.270Z,21.84
2018-06-04T07:07:32.440Z,21.99
2018-06-04T07:10:00.572Z,22.45
2018-06-04T07:12:28.879Z,22.43
2018-06-04T07:14:57.718Z,22.79
2018-06-04T07:17:25.801Z,22.42
2018-06-04T07:19:53.804Z,22.54
2018-06-04T07:22:22.404Z,23.42
2018-06-04T07:24:50.438Z,23.49
2018-06-04T07:27:18.467Z,23.92
2018-06-04T07:29:46.611Z,24.11
2018-06-04T07:32:14.655Z,23.64
2018-06-04T07:34:42.649Z,24.29
2018-06-04T07:37:10.682Z,24.49
2018-06-04T07:39:38.785Z,23.93
2018-06-04T07:42:07.080Z,24.21
2018-06-04T07:44:36.190Z,24.38
2018-06-04T07:47:04.277Z,24.70
2018-06-04T07:49:32.300Z,24.32
2018-06-04T07:52:00.326Z,25.07
2018-06-04T07:54:28.322Z,25.65
2018-06-04T07:56:56.409Z,25.27
2018-06-04T07:59:24.531Z,25.12
2018-06-04T08:01:52.765Z,24.83
2018-06-04T08:04:21.339Z,24.74
2018-06-04T08:06:49.918Z,24.51
2018-06-04T08:09:18.296Z,24.73
2018-06-04T08:11:46.508Z,25.00
2018-06-04T08:14:15.098Z,25.45
2018-06-04T08:16:43.401Z,25.41
2018-06-04T08:19:11.898Z,25.07
2018-06-04T08:21:40.345Z,25.30
2018-06-04T08:24:08.565Z,25.59
2018-06-04T08:26:36.851Z,25.20
2018-06-04T08:29:05.248Z,25.32
2018-06-04T08:31:34.095Z,25.98
2018-06-04T08:34:02.460Z,26.34
2018-06-04T08:36:30.739Z,26.40
2018-06-04T08:38:59.080Z,26.88
2018-06-04T08:41:27.505Z,27.22
2018-06-04T08:43:55.901Z,27.99
2018-06-04T08:46:24.240Z,27.34
2018-06-04T08:48:52.645Z,27.12
2018-06-04T08:51:21.077Z,27.47
2018-06-04T08:53:49.393Z,27.81
2018-06-04T08:56:17.713Z,27.52
2018-06-04T08:58:46.001Z,27.02
2018-06-04T09:01:14.326Z,26.73
2018-06-04T09:03:42.641Z,27.55
2018-06-04T09:06:10.956Z,27.70
2018-06-04T09:08:39.447Z,28.55
2018-06-04T09:11:07.679Z,28.56
2018-06-04T09:13:36.157Z,28.45
2018-06-04T09:16:04.423Z,28.77
2018-06-04T09:18:32.876Z,28.87
2018-06-04T09:21:01.090Z,28.87
2018-06-04T09:23:29.116Z,28.97
2018-06-04T09:25:57.450Z,28.89
2018-06-04T09:28:25.798Z,29.11
2018-06-04T09:30:54.135Z,28.82
2018-06-04T09:33:22.557Z,28.50
2018-06-04T09:35:50.560Z,27.97
2018-06-04T09:38:18.751Z,28.40
2018-06-04T09:40:46.977Z,27.90
2018-06-04T09:43:15.204Z,28.12
2018-06-04T09:45:43.432Z,29.17
2018-06-04T09:48:11.682Z,29.45
2018-06-04T09:50:39.969Z,29.07
2018-06-04T09:53:08.124Z,28.93
2018-06-04T09:55:36.328Z,28.80
2018-06-04T09:58:04.518Z,28.74
2018-06-04T10:00:35.460Z,28.54
2018-06-04T10:03:04.689Z,28.46
2018-06-04T10:05:32.861Z,28.89
2018-06-04T10:08:01.072Z,29.63
2018-06-04T10:10:29.271Z,28.83
2018-06-04T10:12:57.397Z,29.62
2018-06-04T10:15:26.152Z,29.10
2018-06-04T10:17:54.260Z,28.93
2018-06-04T10:20:22.509Z,29.12
2018-06-04T10:22:50.839Z,28.49
2018-06-04T10:25:19.211Z,28.39
2018-06-04T10:27:47.562Z,28.23
2018-06-04T10:30:15.592Z,28.41
2018-06-04T10:32:43.642Z,28.45
2018-06-04T10:35:11.568Z,28.98
2018-06-04T10:37:39.654Z,28.68
2018-06-04T10:40:08.353Z,28.50
2018-06-04T10:42:36.455Z,28.22
2018-06-04T10:45:04.652Z,27.75
2018-06-04T10:47:32.698Z,27.99
2018-06-04T10:50:01.405Z,28.68
2018-06-04T10:52:29.590Z,28.92
2018-06-04T10:54:57.717Z,28.29
2018-06-04T10:57:25.835Z,28.05
2018-06-04T10:59:53.976Z,28.06
2018-06-04T11:02:22.187Z,28.10
2018-06-04T11:04:50.422Z,28.40
2018-06-04T11:07:18.749Z,28.32
2018-06-04T11:09:46.846Z,29.03
2018-06-04T11:12:15.111Z,29.12
2018-06-04T11:14:43.344Z,29.36
2018-06-04T11:17:11.494Z,29.74
2018-06-04T11:19:39.747Z,29.27
2018-06-04T11:22:08.037Z,29.52
2018-06-04T11:24:36.328Z,29.82
2018-06-04T11:27:04.643Z,29.39
2018-06-04T11:29:32.853Z,29.48
2018-06-04T11:32:01.106Z,28.90
2018-06-04T11:34:29.205Z,28.99
2018-06-04T11:36:57.295Z,28.69
2018-06-04T11:39:25.645Z,28.47
2018-06-04T11:41:53.834Z,28.36
2018-06-04T11:44:22.068Z,28.46
2018-06-04T11:46:50.312Z,28.52
2018-06-04T11:49:18.555Z,28.62
2018-06-04T11:51:46.814Z,29.06
2018-06-04T11:54:14.996Z,29.16
2018-06-04T11:56:43.296Z,28.88
2018-06-04T11:59:11.477Z,28.42
2018-06-04T12:01:39.621Z,28.47
2018-06-04T12:04:07.725Z,28.24
2018-06-04T12:06:35.783Z,28.07
2018-06-04T12:09:06.516Z,27.82
2018-06-04T12:11:35.090Z,27.96
2018-06-04T12:14:03.375Z,27.61
2018-06-04T12:16:31.558Z,27.25
2018-06-04T12:18:59.772Z,26.97
2018-06-04T12:21:27.955Z,27.02
2018-06-04T12:23:56.108Z,26.87
2018-06-04T12:26:24.273Z,26.80
2018-06-04T12:28:52.509Z,26.79
2018-06-04T12:31:20.959Z,26.84
2018-06-04T12:33:49.598Z,26.99
2018-06-04T12:36:17.821Z,26.77
2018-06-04T12:38:46.328Z,26.74
2018-06-04T12:41:14.496Z,26.79
2018-06-04T12:43:42.632Z,26.75
2018-06-04T12:46:10.999Z,26.85
2018-06-04T12:48:39.572Z,27.00
2018-06-04T12:51:08.219Z,27.12
2018-06-04T12:53:36.643Z,27.26
2018-06-04T12:56:04.794Z,26.82
2018-06-04T12:58:32.983Z,27.07
2018-06-04T13:01:01.343Z,26.94
2018-06-04T13:03:29.402Z,26.79
2018-06-04T13:05:57.533Z,27.00
2018-06-04T13:08:25.807Z,26.73
2018-06-04T13:10:53.991Z,27.09
2018-06-04T13:13:22.224Z,27.64
2018-06-04T13:15:50.467Z,27.78
2018-06-04T13:18:18.553Z,28.22
2018-06-04T13:20:46.611Z,28.16
2018-06-04T13:23:14.907Z,28.19
2018-06-04T13:25:43.049Z,28.25
2018-06-04T13:28:11.131Z,28.03
2018-06-04T13:30:39.243Z,27.72
2018-06-04T13:33:07.436Z,27.35
2018-06-04T13:35:35.611Z,27.69
2018-06-04T13:38:03.823Z,27.47
2018-06-04T13:40:31.994Z,27.21
2018-06-04T13:43:00.149Z,27.36
2018-06-04T13:45:29.172Z,27.50
2018-06-04T13:47:57.361Z,27.70
2018-06-04T13:50:25.687Z,27.39
2018-06-04T13:52:53.864Z,27.31
2018-06-04T13:55:21.938Z,27.41
2018-06-04T13:57:50.023Z,27.20
2018-06-04T14:00:18.149Z,27.24
2018-06-04T14:02:46.209Z,27.08
2018-06-04T14:05:14.320Z,26.46
2018-06-04T14:07:42.327Z,26.50
2018-06-04T14:10:10.412Z,26.71
2018-06-04T14:12:38.920Z,26.99
2018-06-04T14:15:07.134Z,27.05
2018-06-04T14:17:35.274Z,27.15
2018-06-04T14:20:03.416Z,27.14
2018-06-04T14:22:31.512Z,26.96
2018-06-04T14:24:59.633Z,27.05
2018-06-04T14:27:27.960Z,27.08
2018-06-04T14:29:56.136Z,27.03
2018-06-04T14:32:24.212Z,26.98
2018-06-04T14:34:52.379Z,27.16
2018-06-04T14:37:20.501Z,27.22
2018-06-04T14:39:48.557Z,27.28
2018-06-04T14:42:16.897Z,27.26
2018-06-04T14:44:45.389Z,27.11
2018-06-04T14:47:13.485Z,26.91
2018-06-04T14:49:41.687Z,26.89
2018-06-04T14:52:09.748Z,26.94
2018-06-04T14:54:37.843Z,26.99
2018-06-04T14:57:05.926Z,26.81
2018-06-04T14:59:34.057Z,26.62
2018-06-04T15:02:02.242Z,26.50
2018-06-04T15:04:30.238Z,26.62
2018-06-04T15:06:58.551Z,26.71
2018-06-04T15:09:26.863Z,26.71
2018-06-04T15:11:54.983Z,26.55
2018-06-04T15:14:23.226Z,26.69
2018-06-04T15:16:51.411Z,26.81
2018-06-04T15:19:19.512Z,26.82
2018-06-04T15:21:47.739Z,26.68
2018-06-04T15:24:15.960Z,26.56
2018-06-04T15:26:44.174Z,26.55
2018-06-04T15:29:12.721Z,26.41
2018-06-04T15:31:40.954Z,26.06
2018-06-04T15:34:09.171Z,25.92
2018-06-04T15:36:37.258Z,25.76
2018-06-04T15:39:07.707Z,25.62
2018-06-04T15:41:35.735Z,25.46
2018-06-04T15:44:03.878Z,25.28
2018-06-04T15:46:32.202Z,25.17
2018-06-04T15:49:00.307Z,24.93
2018-06-04T15:51:28.850Z,24.74
2018-06-04T15:53:56.906Z,24.51
2018-06-04T15:56:25.091Z,24.48
2018-06-04T15:58:53.358Z,24.26
2018-06-04T16:01:21.403Z,24.04
2018-06-04T16:03:49.498Z,23.77
2018-06-04T16:06:17.552Z,23.65
2018-06-04T16:08:45.700Z,23.64
2018-06-04T16:11:13.741Z,23.56
2018-06-04T16:13:41.950Z,23.59
2018-06-04T16:16:10.120Z,23.48
2018-06-04T16:18:38.304Z,23.38
2018-06-04T16:21:06.463Z,23.60
2018-06-04T16:23:34.885Z,23.69
2018-06-04T16:26:03.041Z,23.56
2018-06-04T16:28:31.413Z,23.62
2018-06-04T16:30:59.832Z,23.32
2018-06-04T16:33:27.990Z,23.19
2018-06-04T16:35:56.392Z,23.27
2018-06-04T16:38:24.515Z,23.09
2018-06-04T16:40:53.038Z,22.90
2018-06-04T16:43:21.051Z,22.73
2018-06-04T16:45:49.446Z,22.77
2018-06-04T16:48:17.704Z,22.83
2018-06-04T16:50:45.807Z,22.75
2018-06-04T16:53:13.908Z,22.71
2018-06-04T16:55:42.116Z,22.60
2018-06-04T16:58:10.377Z,22.59
2018-06-04T17:00:38.492Z,22.49
2018-06-04T17:03:06.727Z,22.48
2018-06-04T17:05:34.900Z,22.42
2018-06-04T17:08:03.208Z,22.34
2018-06-04T17:10:31.272Z,22.20
2018-06-04T17:12:59.582Z,22.18
2018-06-04T17:15:27.820Z,22.11
2018-06-04T17:17:55.885Z,22.06
2018-06-04T17:20:23.935Z,22.01
2018-06-04T17:22:52.161Z,21.91
2018-06-04T17:25:20.288Z,21.91
2018-06-04T17:27:48.332Z,21.88
2018-06-04T17:30:16.650Z,21.80
2018-06-04T17:32:44.794Z,21.60
2018-06-04T17:35:13.222Z,21.51
2018-06-04T17:37:41.366Z,21.30
2018-06-04T17:40:09.657Z,21.13
2018-06-04T17:42:37.918Z,21.08
2018-06-04T17:45:06.281Z,20.98
2018-06-04T17:47:34.538Z,20.75
2018-06-04T17:50:03.420Z,20.63
2018-06-04T17:52:31.763Z,20.42
2018-06-04T17:55:00.332Z,20.36
2018-06-04T17:57:28.525Z,20.23
2018-06-04T17:59:56.836Z,20.25
2018-06-04T18:02:25.204Z,20.12
2018-06-04T18:04:53.397Z,19.92
2018-06-04T18:07:21.464Z,19.89
2018-06-04T18:09:49.572Z,19.85
2018-06-04T18:12:17.631Z,19.72
2018-06-04T18:14:45.881Z,19.31
2018-06-04T18:17:14.217Z,19.24
2018-06-04T18:19:44.369Z,18.96
2018-06-04T18:22:14.803Z,19.00
2018-06-04T18:24:45.146Z,18.91
2018-06-04T18:27:15.587Z,18.87
2018-06-04T18:29:46.184Z,18.84
2018-06-04T18:32:15.030Z,18.41
2018-06-04T18:34:43.990Z,18.30
2018-06-04T18:37:12.486Z,18.29
2018-06-04T18:39:41.668Z,18.26
2018-06-04T18:42:11.868Z,18.32
2018-06-04T18:44:42.428Z,18.17
2018-06-04T18:47:11.027Z,18.17
2018-06-04T18:49:39.259Z,18.19
2018-06-04T18:52:07.449Z,18.06
2018-06-04T18:54:35.667Z,17.96
2018-06-04T18:57:03.789Z,17.90
2018-06-04T18:59:32.108Z,17.86
2018-06-04T19:02:00.188Z,17.70
2018-06-04T19:04:28.364Z,17.61
2018-06-04T19:06:56.748Z,17.56
2018-06-04T19:09:24.972Z,17.53
2018-06-04T19:11:53.117Z,17.47
2018-06-04T19:14:21.432Z,17.45
2018-06-04T19:16:49.869Z,17.37
2018-06-04T19:19:17.991Z,17.28
2018-06-04T19:21:46.192Z,17.20
2018-06-04T19:24:14.449Z,17.15
2018-06-04T19:26:42.629Z,17.11
2018-06-04T19:29:10.832Z,16.98
2018-06-04T19:31:39.045Z,16.93
2018-06-04T19:34:07.581Z,16.97
2018-06-04T19:36:35.657Z,16.87
2018-06-04T19:39:05.876Z,16.93
2018-06-04T19:41:34.128Z,17.08
2018-06-04T19:44:02.265Z,17.44
2018-06-04T19:46:30.523Z,17.42
2018-06-04T19:48:58.749Z,17.53
2018-06-04T19:51:26.938Z,17.40
2018-06-04T19:53:55.174Z,17.23
2018-06-04T19:56:23.283Z,17.11
2018-06-04T19:58:51.505Z,16.98
2018-06-04T20:01:19.614Z,16.89
2018-06-04T20:03:47.784Z,16.79
2018-06-04T20:06:15.979Z,16.72
2018-06-04T20:08:44.056Z,16.63
2018-06-04T20:11:12.272Z,16.54
2018-06-04T20:13:40.486Z,16.44
2018-06-04T20:16:08.532Z,16.36
2018-06-04T20:18:36.732Z,16.40
2018-06-04T20:21:04.871Z,16.30
2018-06-04T20:23:33.100Z,16.29
2018-06-04T20:26:01.494Z,16.23
2018-06-04T20:28:29.601Z,16.12
2018-06-04T20:30:57.724Z,16.02
2018-06-04T20:33:25.781Z,15.94
2018-06-04T20:35:53.965Z,15.91
2018-06-04T20:38:22.099Z,15.78
2018-06-04T20:40:50.261Z,15.79
2018-06-04T20:43:18.645Z,15.79
2018-06-04T20:45:46.940Z,15.72
2018-06-04T20:48:15.371Z,15.68
2018-06-04T20:50:43.565Z,15.66
2018-06-04T20:53:11.881Z,15.59
2018-06-04T20:55:39.981Z,15.56
2018-06-04T20:58:08.100Z,15.52
2018-06-04T21:00:36.166Z,15.44
2018-06-04T21:03:04.379Z,15.42
2018-06-04T21:05:32.444Z,15.34
2018-06-04T21:08:00.533Z,15.34
2018-06-04T21:10:28.596Z,15.27
2018-06-04T21:12:56.736Z,15.18
2018-06-04T21:15:24.775Z,15.15
2018-06-04T21:17:52.780Z,15.05
2018-06-04T21:20:20.922Z,15.01
2018-06-04T21:22:49.004Z,14.96
2018-06-04T21:25:17.048Z,14.89
2018-06-04T21:27:45.136Z,14.89
2018-06-04T21:30:13.225Z,14.83
2018-06-04T21:32:41.283Z,14.80
2018-06-04T21:35:09.293Z,14.76
2018-06-04T21:37:37.392Z,14.75
2018-06-04T21:40:05.601Z,14.73
2018-06-04T21:42:33.680Z,14.66
2018-06-04T21:45:01.654Z,14.62
2018-06-04T21:47:29.699Z,14.63
2018-06-04T21:49:57.688Z,14.55
2018-06-04T21:52:25.651Z,14.53
2018-06-04T21:54:53.715Z,14.50
2018-06-04T21:57:21.696Z,14.49
2018-06-04T21:59:49.803Z,14.45
2018-06-04T22:02:17.760Z,14.43
2018-06-04T22:04:45.744Z,14.41
2018-06-04T22:07:13.790Z,14.38
2018-06-04T22:09:41.816Z,14.32
2018-06-04T22:12:09.822Z,14.25
2018-06-04T22:14:37.822Z,14.26
2018-06-04T22:17:05.957Z,14.23
2018-06-04T22:19:33.995Z,14.21
2018-06-04T22:22:02.136Z,14.22
2018-06-04T22:24:30.124Z,14.21
2018-06-04T22:26:58.143Z,14.16
2018-06-04T22:29:26.188Z,14.11
2018-06-04T22:31:54.373Z,14.10
2018-06-04T22:34:22.398Z,14.10
2018-06-04T22:36:50.528Z,14.12
2018-06-04T22:39:18.500Z,14.11
2018-06-04T22:41:46.551Z,14.12
2018-06-04T22:44:14.641Z,14.11
2018-06-04T22:46:42.663Z,14.10
2018-06-04T22:49:10.729Z,14.09
2018-06-04T22:51:38.759Z,14.03
2018-06-04T22:54:06.721Z,13.96
2018-06-04T22:56:34.760Z,13.93
2018-06-04T22:59:02.792Z,13.89
2018-06-04T23:01:30.713Z,13.86
2018-06-04T23:03:58.755Z,13.81
2018-06-04T23:06:26.781Z,13.85
2018-06-04T23:08:54.779Z,14.12
2018-06-04T23:11:22.774Z,14.16
2018-06-04T23:13:50.832Z,13.98
2018-06-04T23:16:18.863Z,13.86
2018-06-04T23:18:46.921Z,13.76
2018-06-04T23:21:14.917Z,13.66
2018-06-04T23:23:42.938Z,13.58
2018-06-04T23:26:10.984Z,13.55
2018-06-04T23:28:39.019Z,13.52
2018-06-04T23:31:07.180Z,13.48
2018-06-04T23:33:35.213Z,13.59
2018-06-04T23:36:03.260Z,13.61
2018-06-04T23:38:31.211Z,13.55
2018-06-04T23:40:59.223Z,13.50
2018-06-04T23:43:27.260Z,13.46
2018-06-04T23:45:55.216Z,13.44
2018-06-04T23:48:23.239Z,13.38
2018-06-04T23:50:51.262Z,13.29
2018-06-04T23:53:19.234Z,13.26
2018-06-04T23:55:47.211Z,13.24
2018-06-04T23:58:15.269Z,13.23
